Tamara — HOEH — position and weather

sailwx.info

Track history (hours):
 
Tides and Currents Weather Stations Pressure Air Temp Water Temp Dewpoint Dewpoint Depression Visibility Wind Speed Wind Dir Waves Ship Positions

Tamara

Last reported at 2015-Aug-10 12:33 UTC. Time now 2015-Sep-01 05:57 UTC.
Position N 34°12' E 033°12'.
Warning: this ship's position is 21 days out of date.

Length 117 m; draft 5.4 m.

Type: Ship (hazmat cat A). MMSI: 353900000.

Date/timePositionNaut miles runAvg speedWind from/ knotsBaromVisibWave heightAir tempDewpointWater temp
2015-Aug-10 12:33N 34°12' E 033°12'1412.9
2015-Aug-10 11:27N 34°21' E 033°26'5 4.5
2015-Aug-10 10:22N 34°24' E 033°30'2 2.1
2015-Aug-10 09:30N 34°23' E 033°28'2 2.1
2015-Aug-10 08:31N 34°22' E 033°26'4 1.9
2015-Aug-10 06:29N 34°20' E 033°22'2 1.6
2015-Aug-10 05:08N 34°19' E 033°20'3 1.4
2015-Aug-10 03:17N 34°18' E 033°17'3 1.1
2015-Aug-10 00:20N 34°17' E 033°13'1 1.2
2015-Aug-09 23:32N 34°17' E 033°12'1 1.3
2015-Aug-09 22:32N 34°17' E 033°10'1 1.4
2015-Aug-09 21:32N 34°17' E 033°08'2 1.6
2015-Aug-09 20:32N 34°18' E 033°07'108 3.0
2015-Aug-08 08:33N 33°54' E 035°14'1413.7
2015-Aug-08 07:33N 33°55' E 034°58'1413.8
2015-Aug-08 06:33N 33°56' E 034°41'1413.6
2015-Aug-08 05:34N 33°58' E 034°25'1413.6
2015-Aug-08 04:34N 34°00' E 034°09'3213.8
2015-Aug-08 02:12N 34°01' E 033°30'913.9
2015-Aug-08 01:33N 34°01' E 033°19'1414.0
2015-Aug-08 00:32N 34°03' E 033°02'1414.3
2015-Aug-07 23:33N 34°04' E 032°45'1414.2
2015-Aug-07 22:33N 34°05' E 032°28'1414.0
2015-Aug-07 21:33N 34°06' E 032°11'1413.5
2015-Aug-07 20:30N 34°07' E 031°54'1313.3
2015-Aug-07 19:33N 34°08' E 031°39'1313.3
2015-Aug-07 18:33N 34°09' E 031°23'1313.3
2015-Aug-07 17:33N 34°10' E 031°07'1413.3
2015-Aug-07 16:31N 34°11' E 030°50'1413.6
2015-Aug-07 15:29N 34°13' E 030°33'1813.7
2015-Aug-07 14:09N 34°14' E 030°11'913.9
2015-Aug-07 13:31N 34°15' E 030°00'1414.2
2015-Aug-07 12:32N 34°16' E 029°44'1414.4
2015-Aug-07 11:34N 34°17' E 029°27'1414.4
2015-Aug-07 10:34N 34°18' E 029°09'1414.4
2015-Aug-07 09:34N 34°19' E 028°52'  
2015-Aug-04 12:20N 35°46' E 015°04'1413.6
2015-Aug-04 11:16N 35°56' E 014°51'1 1.0
2015-Aug-04 10:08N 35°56' E 014°50'0 0.0
2015-Aug-04 09:32N 35°56' E 014°50'0 0.0
2015-Aug-04 08:32N 35°56' E 014°50'0 0.0
2015-Aug-04 07:32N 35°56' E 014°50'0 0.0
2015-Aug-03 09:28N 35°56' E 014°50'0 0.0
2015-Aug-03 08:28N 35°56' E 014°50'0 0.0
2015-Aug-03 07:31N 35°56' E 014°50'0 0.0
2015-Aug-03 06:28N 35°56' E 014°50'0 0.0
2015-Aug-03 05:31N 35°56' E 014°50'0 0.0
2015-Aug-03 04:31N 35°56' E 014°50'0 0.0
2015-Aug-03 03:31N 35°56' E 014°50'0 0.0
2015-Aug-03 02:31N 35°56' E 014°50'0 0.0
2015-Aug-03 01:31N 35°56' E 014°50'0 0.0
2015-Aug-03 00:28N 35°56' E 014°50'0 0.0
2015-Aug-02 23:31N 35°56' E 014°50'0 0.0
2015-Aug-02 22:31N 35°56' E 014°50'0 0.1
2015-Aug-02 21:31N 35°56' E 014°50'0 0.0
2015-Aug-02 20:31N 35°56' E 014°50'0 0.0
2015-Aug-02 19:31N 35°56' E 014°50'0 0.0
2015-Aug-02 18:31N 35°56' E 014°50'0 0.0
2015-Aug-02 17:28N 35°56' E 014°50'0 0.0
2015-Aug-02 16:19N 35°56' E 014°50'0 0.0
2015-Aug-02 15:22N 35°56' E 014°50'0 0.0
2015-Aug-02 13:31N 35°56' E 014°50'0 0.0
2015-Aug-02 11:04N 35°56' E 014°50'0 0.0
2015-Aug-02 10:27N 35°56' E 014°50'0 0.0
2015-Aug-02 07:33N 35°56' E 014°50'0 0.0
2015-Aug-02 06:33N 35°56' E 014°50'0 0.0
2015-Aug-02 05:33N 35°56' E 014°50'0 0.0
2015-Aug-02 04:30N 35°56' E 014°50'0 0.0
2015-Aug-02 03:33N 35°56' E 014°50'0 0.0
2015-Aug-02 02:33N 35°56' E 014°50'0 0.0
2015-Aug-02 01:27N 35°56' E 014°50'0 0.0
2015-Aug-02 00:30N 35°56' E 014°50'0 0.0
2015-Aug-01 23:33N 35°56' E 014°50'0 0.0
2015-Aug-01 22:21N 35°56' E 014°50'0 0.0
2015-Aug-01 21:33N 35°56' E 014°50'0 0.0
2015-Aug-01 20:33N 35°56' E 014°50'0 0.0
2015-Aug-01 19:33N 35°56' E 014°50'0 0.0
2015-Aug-01 18:30N 35°56' E 014°50'0 0.0
2015-Aug-01 17:33N 35°56' E 014°50'0 0.0
2015-Aug-01 15:27N 35°56' E 014°50'0 0.0
2015-Aug-01 14:33N 35°56' E 014°50'0 0.0
2015-Aug-01 13:33N 35°56' E 014°50'0 0.0
2015-Aug-01 12:33N 35°56' E 014°50'0 0.0
2015-Aug-01 11:33N 35°56' E 014°50'0 0.0
2015-Aug-01 10:33N 35°56' E 014°50'0 0.0
2015-Aug-01 09:27N 35°56' E 014°50'0 0.0
2015-Aug-01 08:33N 35°56' E 014°50'0 0.0
2015-Aug-01 07:33N 35°56' E 014°50'0 0.0
2015-Aug-01 06:33N 35°56' E 014°50'0 0.0
2015-Aug-01 05:33N 35°56' E 014°50'0 0.0
2015-Aug-01 04:33N 35°56' E 014°50'0 0.0
2015-Aug-01 03:33N 35°56' E 014°50'0 0.0
2015-Aug-01 02:33N 35°56' E 014°50'0 0.0
2015-Aug-01 01:33N 35°56' E 014°50'0 0.0
2015-Aug-01 00:33N 35°56' E 014°50'0 0.0
2015-Jul-31 23:32N 35°56' E 014°50'0 0.0
2015-Jul-31 22:32N 35°56' E 014°50'0 0.0
2015-Jul-31 21:32N 35°56' E 014°50'0 0.0
2015-Jul-31 20:32N 35°56' E 014°50'0 0.0
2015-Jul-31 19:32N 35°56' E 014°50'0 0.0
2015-Jul-31 18:32N 35°56' E 014°50'0 0.0
2015-Jul-31 17:32N 35°56' E 014°50'0 0.0
2015-Jul-31 16:32N 35°56' E 014°50'0 0.0
2015-Jul-31 15:32N 35°56' E 014°50'0 0.0
2015-Jul-31 14:32N 35°56' E 014°50'0 0.0
2015-Jul-31 13:32N 35°56' E 014°50'  
Track history (hours):
 
Tides and Currents Weather Stations Pressure Air Temp Water Temp Dewpoint Dewpoint Depression Visibility Wind Speed Wind Dir Waves Ship Positions

Tamara

Last reported at 2015-Aug-10 12:33 UTC. Time now 2015-Sep-01 05:57 UTC.
Position N 34°12' E 033°12'.
Warning: this ship's position is 21 days out of date.

Length 117 m; draft 5.4 m.

Type: Ship (hazmat cat A). MMSI: 353900000.

Date/timePositionNaut miles runAvg speedWind from/ knotsBaromVisibWave heightAir tempDewpointWater temp
2015-Aug-10 12:33N 34°12' E 033°12'1412.9
2015-Aug-10 11:27N 34°21' E 033°26'5 4.5
2015-Aug-10 10:22N 34°24' E 033°30'2 2.1
2015-Aug-10 09:30N 34°23' E 033°28'2 2.1
2015-Aug-10 08:31N 34°22' E 033°26'4 1.9
2015-Aug-10 06:29N 34°20' E 033°22'2 1.6
2015-Aug-10 05:08N 34°19' E 033°20'3 1.4
2015-Aug-10 03:17N 34°18' E 033°17'3 1.1
2015-Aug-10 00:20N 34°17' E 033°13'1 1.2
2015-Aug-09 23:32N 34°17' E 033°12'1 1.3
2015-Aug-09 22:32N 34°17' E 033°10'1 1.4
2015-Aug-09 21:32N 34°17' E 033°08'2 1.6
2015-Aug-09 20:32N 34°18' E 033°07'108 3.0
2015-Aug-08 08:33N 33°54' E 035°14'1413.7
2015-Aug-08 07:33N 33°55' E 034°58'1413.8
2015-Aug-08 06:33N 33°56' E 034°41'1413.6
2015-Aug-08 05:34N 33°58' E 034°25'1413.6
2015-Aug-08 04:34N 34°00' E 034°09'3213.8
2015-Aug-08 02:12N 34°01' E 033°30'913.9
2015-Aug-08 01:33N 34°01' E 033°19'1414.0
2015-Aug-08 00:32N 34°03' E 033°02'1414.3
2015-Aug-07 23:33N 34°04' E 032°45'1414.2
2015-Aug-07 22:33N 34°05' E 032°28'1414.0
2015-Aug-07 21:33N 34°06' E 032°11'1413.5
2015-Aug-07 20:30N 34°07' E 031°54'1313.3
2015-Aug-07 19:33N 34°08' E 031°39'1313.3
2015-Aug-07 18:33N 34°09' E 031°23'1313.3
2015-Aug-07 17:33N 34°10' E 031°07'1413.3
2015-Aug-07 16:31N 34°11' E 030°50'1413.6
2015-Aug-07 15:29N 34°13' E 030°33'1813.7
2015-Aug-07 14:09N 34°14' E 030°11'913.9
2015-Aug-07 13:31N 34°15' E 030°00'1414.2
2015-Aug-07 12:32N 34°16' E 029°44'1414.4
2015-Aug-07 11:34N 34°17' E 029°27'1414.4
2015-Aug-07 10:34N 34°18' E 029°09'1414.4
2015-Aug-07 09:34N 34°19' E 028°52'  
2015-Aug-04 12:20N 35°46' E 015°04'1413.6
2015-Aug-04 11:16N 35°56' E 014°51'1 1.0
2015-Aug-04 10:08N 35°56' E 014°50'0 0.0
2015-Aug-04 09:32N 35°56' E 014°50'0 0.0
2015-Aug-04 08:32N 35°56' E 014°50'0 0.0
2015-Aug-04 07:32N 35°56' E 014°50'0 0.0
2015-Aug-03 09:28N 35°56' E 014°50'0 0.0
2015-Aug-03 08:28N 35°56' E 014°50'0 0.0
2015-Aug-03 07:31N 35°56' E 014°50'0 0.0
2015-Aug-03 06:28N 35°56' E 014°50'0 0.0
2015-Aug-03 05:31N 35°56' E 014°50'0 0.0
2015-Aug-03 04:31N 35°56' E 014°50'0 0.0
2015-Aug-03 03:31N 35°56' E 014°50'0 0.0
2015-Aug-03 02:31N 35°56' E 014°50'0 0.0
2015-Aug-03 01:31N 35°56' E 014°50'0 0.0
2015-Aug-03 00:28N 35°56' E 014°50'0 0.0
2015-Aug-02 23:31N 35°56' E 014°50'0 0.0
2015-Aug-02 22:31N 35°56' E 014°50'0 0.1
2015-Aug-02 21:31N 35°56' E 014°50'0 0.0
2015-Aug-02 20:31N 35°56' E 014°50'0 0.0
2015-Aug-02 19:31N 35°56' E 014°50'0 0.0
2015-Aug-02 18:31N 35°56' E 014°50'0 0.0
2015-Aug-02 17:28N 35°56' E 014°50'0 0.0
2015-Aug-02 16:19N 35°56' E 014°50'0 0.0
2015-Aug-02 15:22N 35°56' E 014°50'0 0.0
2015-Aug-02 13:31N 35°56' E 014°50'0 0.0
2015-Aug-02 11:04N 35°56' E 014°50'0 0.0
2015-Aug-02 10:27N 35°56' E 014°50'0 0.0
2015-Aug-02 07:33N 35°56' E 014°50'0 0.0
2015-Aug-02 06:33N 35°56' E 014°50'0 0.0
2015-Aug-02 05:33N 35°56' E 014°50'0 0.0
2015-Aug-02 04:30N 35°56' E 014°50'0 0.0
2015-Aug-02 03:33N 35°56' E 014°50'0 0.0
2015-Aug-02 02:33N 35°56' E 014°50'0 0.0
2015-Aug-02 01:27N 35°56' E 014°50'0 0.0
2015-Aug-02 00:30N 35°56' E 014°50'0 0.0
2015-Aug-01 23:33N 35°56' E 014°50'0 0.0
2015-Aug-01 22:21N 35°56' E 014°50'0 0.0
2015-Aug-01 21:33N 35°56' E 014°50'0 0.0
2015-Aug-01 20:33N 35°56' E 014°50'0 0.0
2015-Aug-01 19:33N 35°56' E 014°50'0 0.0
2015-Aug-01 18:30N 35°56' E 014°50'0 0.0
2015-Aug-01 17:33N 35°56' E 014°50'0 0.0
2015-Aug-01 15:27N 35°56' E 014°50'0 0.0
2015-Aug-01 14:33N 35°56' E 014°50'0 0.0
2015-Aug-01 13:33N 35°56' E 014°50'0 0.0
2015-Aug-01 12:33N 35°56' E 014°50'0 0.0
2015-Aug-01 11:33N 35°56' E 014°50'0 0.0
2015-Aug-01 10:33N 35°56' E 014°50'0 0.0
2015-Aug-01 09:27N 35°56' E 014°50'0 0.0
2015-Aug-01 08:33N 35°56' E 014°50'0 0.0
2015-Aug-01 07:33N 35°56' E 014°50'0 0.0
2015-Aug-01 06:33N 35°56' E 014°50'0 0.0
2015-Aug-01 05:33N 35°56' E 014°50'0 0.0
2015-Aug-01 04:33N 35°56' E 014°50'0 0.0
2015-Aug-01 03:33N 35°56' E 014°50'0 0.0
2015-Aug-01 02:33N 35°56' E 014°50'0 0.0
2015-Aug-01 01:33N 35°56' E 014°50'0 0.0
2015-Aug-01 00:33N 35°56' E 014°50'0 0.0
2015-Jul-31 23:32N 35°56' E 014°50'0 0.0
2015-Jul-31 22:32N 35°56' E 014°50'0 0.0
2015-Jul-31 21:32N 35°56' E 014°50'0 0.0
2015-Jul-31 20:32N 35°56' E 014°50'0 0.0
2015-Jul-31 19:32N 35°56' E 014°50'0 0.0
2015-Jul-31 18:32N 35°56' E 014°50'0 0.0
2015-Jul-31 17:32N 35°56' E 014°50'0 0.0
2015-Jul-31 16:32N 35°56' E 014°50'0 0.0
2015-Jul-31 15:32N 35°56' E 014°50'0 0.0
2015-Jul-31 14:32N 35°56' E 014°50'0 0.0
2015-Jul-31 13:32N 35°56' E 014°50'  

Dump ship's entire track history